Time;durP1;ratioP1;P1;durP2;ratioP2;P2;SDS_P1;SDS_P2;PMS_P1;PMS_P2;Temp;Humidity;BMP_temperature;BMP_pressure;BME280_temperature;BME280_humidity;BME280_pressure;Samples;Min_cycle;Max_cycle;Signal;HPM_P1;HPM_P2
2020/12/27 00:00:30;;;;;;;23.90;14.87;;;;;;;-4.60;89.28;96033.41;1044888;28;20021;-43
2020/12/27 00:01:00;;;;;;;21.93;14.70;;;;;;;-4.63;90.12;96029.31;1044666;28;20052;-43
2020/12/27 00:01:31;;;;;;;26.53;15.63;;;;;;;-4.58;89.14;96036.69;1044979;28;20009;-42
2020/12/27 00:02:05;;;;;;;25.70;14.53;;;;;;;-4.57;89.44;96025.47;1045444;28;20013;-42
2020/12/27 00:02:35;;;;;;;21.98;13.88;;;;;;;-4.58;89.24;96031.56;1045039;28;20009;-42
2020/12/27 00:03:06;;;;;;;23.30;13.97;;;;;;;-4.61;89.54;96032.59;1044925;28;20020;-42
2020/12/27 00:03:36;;;;;;;22.33;13.33;;;;;;;-4.62;89.90;96025.78;1045188;28;20012;-42
2020/12/27 00:04:07;;;;;;;17.07;12.20;;;;;;;-4.62;90.06;96036.06;1045155;28;20067;-43
2020/12/27 00:04:38;;;;;;;17.33;12.10;;;;;;;-4.61;89.92;96022.31;1045870;28;20020;-42
2020/12/27 00:05:09;;;;;;;17.20;12.00;;;;;;;-4.56;89.62;96029.69;1045416;28;20017;-42
2020/12/27 00:05:40;;;;;;;19.90;12.98;;;;;;;-4.58;89.70;96036.69;1045613;28;20017;-42
2020/12/27 00:06:10;;;;;;;18.47;13.23;;;;;;;-4.55;89.27;96028.78;1045393;28;20394;-42
2020/12/27 00:06:41;;;;;;;15.53;11.40;;;;;;;-4.55;89.12;96032.16;1045593;28;20043;-42
2020/12/27 00:07:14;;;;;;;21.57;13.03;;;;;;;-4.58;89.20;96034.13;1045210;28;20021;-42
2020/12/27 00:07:44;;;;;;;18.40;12.13;;;;;;;-4.57;89.79;96028.03;1045327;28;20049;-42
2020/12/27 00:08:15;;;;;;;18.93;12.53;;;;;;;-4.58;89.73;96023.84;1045543;28;20009;-43
2020/12/27 00:08:45;;;;;;;20.47;12.17;;;;;;;-4.61;89.45;96024.06;1041512;28;20025;-42
2020/12/27 00:09:17;;;;;;;23.20;13.00;;;;;;;-4.63;89.58;96021.59;1044996;28;20128;-42
2020/12/27 00:09:48;;;;;;;19.45;12.93;;;;;;;-4.63;89.94;96021.59;1045392;28;20017;-43
2020/12/27 00:10:18;;;;;;;17.87;12.07;;;;;;;-4.65;89.87;96016.56;1045189;28;20025;-42
2020/12/27 00:10:49;;;;;;;19.27;13.03;;;;;;;-4.64;90.09;96018.19;1045578;28;20013;-42
2020/12/27 00:11:20;;;;;;;20.23;12.77;;;;;;;-4.65;89.82;96014.00;1045660;28;20013;-43
2020/12/27 00:11:53;;;;;;;16.67;12.10;;;;;;;-4.64;90.09;96007.91;1045650;28;20103;-41
2020/12/27 00:12:23;;;;;;;18.48;13.20;;;;;;;-4.64;90.21;96002.78;1045585;28;20124;-42
2020/12/27 00:12:54;;;;;;;15.70;10.97;;;;;;;-4.65;89.83;96000.31;1045405;28;20020;-42
2020/12/27 00:13:24;;;;;;;17.23;11.80;;;;;;;-4.62;90.63;96012.13;1045728;28;20516;-43
2020/12/27 00:13:55;;;;;;;17.90;12.37;;;;;;;-4.67;90.59;96000.41;1045713;28;20033;-43
2020/12/27 00:14:25;;;;;;;17.70;12.17;;;;;;;-4.68;90.95;96009.03;1045354;28;20036;-43
2020/12/27 00:14:56;;;;;;;21.27;12.77;;;;;;;-4.69;90.69;96004.84;1045525;28;20024;-43
2020/12/27 00:15:26;;;;;;;24.27;15.70;;;;;;;-4.68;91.29;96005.66;1045493;28;20025;-44
2020/12/27 00:15:57;;;;;;;22.17;13.83;;;;;;;-4.67;90.98;96007.31;1045602;28;20013;-42
2020/12/27 00:16:27;;;;;;;24.77;15.30;;;;;;;-4.69;90.40;96004.84;1045705;28;20025;-43
2020/12/27 00:17:08;;;;;;;21.23;14.10;;;;;;;-4.67;91.21;96010.69;1045720;28;20040;-43
2020/12/27 00:17:38;;;;;;;16.67;11.98;;;;;;;-4.71;91.20;96009.25;1045894;28;20020;-43
2020/12/27 00:18:09;;;;;;;19.23;12.50;;;;;;;-4.74;91.31;96004.31;1045846;28;20025;-42
2020/12/27 00:18:40;;;;;;;19.57;12.90;;;;;;;-4.74;91.36;96008.63;1045442;28;20017;-42
2020/12/27 00:19:10;;;;;;;16.50;11.10;;;;;;;-4.73;91.29;96008.53;1045403;28;20017;-42
2020/12/27 00:19:41;;;;;;;17.40;12.27;;;;;;;-4.71;91.03;96001.53;1045076;28;20466;-42
2020/12/27 00:20:11;;;;;;;20.67;12.77;;;;;;;-4.74;91.11;96006.06;1040857;28;20413;-42
2020/12/27 00:20:42;;;;;;;21.87;12.83;;;;;;;-4.75;90.94;96006.97;1040791;28;20022;-42
2020/12/27 00:21:12;;;;;;;16.30;11.43;;;;;;;-4.75;91.04;96009.56;1041164;28;20045;-42
2020/12/27 00:21:43;;;;;;;14.77;11.60;;;;;;;-4.74;90.64;96000.94;1045542;28;20159;-43
2020/12/27 00:22:14;;;;;;;16.70;11.90;;;;;;;-4.72;90.61;96002.47;1045279;28;20040;-42
2020/12/27 00:22:44;;;;;;;18.73;11.70;;;;;;;-4.70;90.84;96005.75;1045323;28;20084;-42
2020/12/27 00:23:15;;;;;;;22.27;11.70;;;;;;;-4.68;90.53;96010.78;1045063;28;20059;-42
2020/12/27 00:23:46;;;;;;;18.43;11.23;;;;;;;-4.68;91.21;96003.91;1045079;28;20024;-41
2020/12/27 00:24:16;;;;;;;22.53;13.10;;;;;;;-4.69;90.87;96007.41;1045648;28;20364;-42
2020/12/27 00:24:47;;;;;;;18.60;12.40;;;;;;;-4.68;90.52;96011.59;1045369;28;20017;-42
2020/12/27 00:25:18;;;;;;;18.27;12.13;;;;;;;-4.68;90.83;96005.66;1045421;28;20023;-42
2020/12/27 00:25:48;;;;;;;19.87;11.50;;;;;;;-4.75;91.12;96010.41;1045665;28;20100;-42
2020/12/27 00:26:19;;;;;;;17.63;11.53;;;;;;;-4.79;91.31;96011.50;1045241;28;20025;-42
2020/12/27 00:26:49;;;;;;;18.20;11.93;;;;;;;-4.77;91.42;96011.41;1045343;28;20060;-43
2020/12/27 00:27:20;;;;;;;19.57;11.87;;;;;;;-4.73;90.37;96020.56;1045236;28;20070;-43
2020/12/27 00:27:50;;;;;;;21.20;12.13;;;;;;;-4.76;90.60;96008.75;1045171;28;20414;-43
2020/12/27 00:28:21;;;;;;;17.83;11.37;;;;;;;-4.78;90.68;96013.16;1045723;28;20013;-41
2020/12/27 00:28:51;;;;;;;18.03;11.77;;;;;;;-4.78;90.79;96009.75;1045829;28;20051;-42
2020/12/27 00:29:22;;;;;;;17.23;11.47;;;;;;;-4.82;90.28;96009.97;1045336;28;20017;-44
2020/12/27 00:29:53;;;;;;;16.33;11.60;;;;;;;-4.84;91.31;96011.00;1045317;28;20036;-44
2020/12/27 00:30:23;;;;;;;18.80;11.43;;;;;;;-4.86;90.69;96015.41;1041374;28;20013;-43
2020/12/27 00:30:54;;;;;;;17.90;12.10;;;;;;;-4.83;90.83;96012.63;1040927;28;20062;-43
2020/12/27 00:31:24;;;;;;;17.87;11.60;;;;;;;-4.86;90.84;96012.84;1041343;28;20101;-46
2020/12/27 00:31:55;;;;;;;18.50;12.00;;;;;;;-4.92;91.25;96008.13;1045326;28;20036;-43
2020/12/27 00:32:27;;;;;;;19.23;11.77;;;;;;;-4.97;91.86;96007.63;1045309;28;20464;-43
2020/12/27 00:32:57;;;;;;;16.33;11.57;;;;;;;-4.96;91.40;96006.69;1045185;28;20274;-42
2020/12/27 00:33:28;;;;;;;16.47;11.23;;;;;;;-4.91;91.49;96007.22;1045403;28;20017;-43
2020/12/27 00:33:58;;;;;;;14.90;10.57;;;;;;;-4.90;90.94;96001.97;1045472;28;20005;-42
2020/12/27 00:34:29;;;;;;;16.63;11.67;;;;;;;-4.89;90.63;96000.22;1045663;28;20112;-43
2020/12/27 00:35:02;;;;;;;18.27;12.27;;;;;;;-4.87;90.69;96006.09;1045541;28;20067;-42
2020/12/27 00:35:32;;;;;;;19.95;12.95;;;;;;;-4.92;90.91;96003.81;1045614;28;20017;-42
2020/12/27 00:36:03;;;;;;;17.30;12.00;;;;;;;-4.92;91.29;96000.41;1045728;28;20021;-42
2020/12/27 00:36:33;;;;;;;16.63;11.63;;;;;;;-4.93;90.51;96001.38;1045308;28;20031;-42
2020/12/27 00:37:04;;;;;;;17.63;11.43;;;;;;;-4.96;90.60;95998.97;1045043;28;20017;-42
2020/12/27 00:37:35;;;;;;;15.87;11.17;;;;;;;-4.93;90.98;96001.38;1045317;28;20021;-43
2020/12/27 00:38:05;;;;;;;15.40;10.43;;;;;;;-4.93;90.33;95991.09;1045620;28;20041;-43
2020/12/27 00:38:36;;;;;;;14.70;10.77;;;;;;;-4.97;90.38;95992.22;1045920;28;20008;-42
2020/12/27 00:39:06;;;;;;;14.00;10.20;;;;;;;-4.94;90.26;95994.56;1045742;28;20076;-42
2020/12/27 00:39:37;;;;;;;16.03;11.50;;;;;;;-4.94;90.69;95994.56;1041351;28;20072;-45
2020/12/27 00:40:07;;;;;;;18.50;11.30;;;;;;;-4.94;90.95;95990.25;1036994;28;20018;-42
2020/12/27 00:40:38;;;;;;;17.10;11.43;;;;;;;-4.93;90.71;95991.91;1037316;28;20057;-42
2020/12/27 00:41:08;;;;;;;18.27;12.07;;;;;;;-4.92;90.60;95995.28;1037459;28;20025;-42
2020/12/27 00:41:39;;;;;;;18.90;11.67;;;;;;;-4.92;91.00;95987.56;1040990;28;20021;-42
2020/12/27 00:42:09;;;;;;;17.17;11.57;;;;;;;-4.92;91.15;95992.72;1044949;28;20096;-41
2020/12/27 00:42:40;;;;;;;15.03;10.63;;;;;;;-4.89;91.22;95995.06;1045192;28;20048;-43
2020/12/27 00:43:10;;;;;;;16.33;11.07;;;;;;;-4.92;91.15;95992.72;1045133;28;20045;-42
2020/12/27 00:43:41;;;;;;;18.40;12.47;;;;;;;-4.92;91.15;95991.00;1045544;28;20016;-42
2020/12/27 00:44:11;;;;;;;21.33;14.23;;;;;;;-4.91;91.00;95994.38;1044906;28;20033;-43
2020/12/27 00:44:42;;;;;;;20.43;13.57;;;;;;;-4.90;91.19;95990.88;1045419;28;20139;-41
2020/12/27 00:45:12;;;;;;;20.63;13.63;;;;;;;-4.93;91.48;95997.03;1045193;28;20017;-43
2020/12/27 00:45:42;;;;;;;18.07;12.50;;;;;;;-4.93;91.39;95988.53;1045458;28;20013;-43
2020/12/27 00:46:13;;;;;;;17.23;11.90;;;;;;;-4.96;91.43;95988.69;1045425;28;20032;-42
2020/12/27 00:46:48;;;;;;;17.03;12.47;;;;;;;-4.93;91.52;95991.91;1045607;28;20082;-43
2020/12/27 00:47:18;;;;;;;19.73;12.27;;;;;;;-4.93;91.65;95985.97;1045312;28;20020;-44
2020/12/27 00:47:49;;;;;;;16.90;11.20;;;;;;;-4.94;91.22;95985.13;1045164;28;20108;-43
2020/12/27 00:48:19;;;;;;;16.50;11.60;;;;;;;-4.92;91.88;95985.00;1045418;28;20381;-44
2020/12/27 00:48:50;;;;;;;15.47;11.33;;;;;;;-4.94;91.15;95979.16;1045146;28;20417;-42
2020/12/27 00:49:21;;;;;;;17.20;10.97;;;;;;;-4.94;91.47;95981.72;1045457;28;20429;-42
2020/12/27 00:49:51;;;;;;;14.23;10.23;;;;;;;-4.93;91.77;95975.69;1045544;28;20380;-43
2020/12/27 00:50:22;;;;;;;14.70;11.20;;;;;;;-4.95;91.29;95973.22;1045646;28;20025;-42
2020/12/27 00:50:52;;;;;;;12.90;10.33;;;;;;;-4.92;91.55;95969.59;1045688;28;20127;-42
2020/12/27 00:51:24;;;;;;;16.10;10.20;;;;;;;-4.91;91.23;95968.69;1045686;28;20048;-43
2020/12/27 00:51:54;;;;;;;14.07;10.25;;;;;;;-4.95;91.33;95972.38;1045386;28;20037;-43
2020/12/27 00:52:25;;;;;;;16.20;11.30;;;;;;;-4.97;91.69;95964.78;1045484;28;20346;-43
2020/12/27 00:52:55;;;;;;;13.93;10.10;;;;;;;-4.95;91.92;95962.94;1045092;28;20124;-43
2020/12/27 00:53:26;;;;;;;16.80;10.63;;;;;;;-4.96;91.08;95963.03;1045350;28;20103;-43
2020/12/27 00:53:56;;;;;;;15.33;10.83;;;;;;;-5.00;91.18;95965.78;1045298;28;20369;-43
2020/12/27 00:54:27;;;;;;;15.20;10.70;;;;;;;-4.99;91.51;95961.50;1045110;28;20560;-43
2020/12/27 00:54:57;;;;;;;12.90;9.50;;;;;;;-4.95;91.81;95960.38;1045833;28;20090;-42
2020/12/27 00:55:28;;;;;;;12.43;9.30;;;;;;;-4.98;90.68;95959.75;1045682;28;20025;-42
2020/12/27 00:55:58;;;;;;;11.67;9.10;;;;;;;-5.01;90.99;95964.16;1041289;28;20485;-43
2020/12/27 00:56:29;;;;;;;14.73;10.07;;;;;;;-5.01;91.32;95959.03;1041141;28;20486;-43
2020/12/27 00:56:59;;;;;;;12.87;9.90;;;;;;;-5.00;90.89;95960.66;1041164;28;20490;-42
2020/12/27 00:57:30;;;;;;;14.47;10.53;;;;;;;-5.01;91.39;95964.16;1041059;28;20409;-42
2020/12/27 00:58:00;;;;;;;13.20;9.97;;;;;;;-5.02;91.36;95954.00;1045521;28;20017;-43
2020/12/27 00:58:31;;;;;;;12.50;8.93;;;;;;;-4.98;91.27;95962.31;1045484;28;20025;-42
2020/12/27 00:59:02;;;;;;;15.23;10.27;;;;;;;-4.95;91.29;95964.66;1045638;28;20427;-43
2020/12/27 00:59:32;;;;;;;14.97;10.37;;;;;;;-4.95;91.51;95957.81;1045483;28;20051;-43
2020/12/27 01:00:04;;;;;;;14.23;10.48;;;;;;;-4.97;91.29;95959.63;1045972;28;20029;-42
2020/12/27 01:00:34;;;;;;;14.20;9.73;;;;;;;-4.98;91.28;95957.19;1045836;28;20476;-43
2020/12/27 01:01:06;;;;;;;14.63;10.73;;;;;;;-5.02;91.53;95949.69;1045413;28;20021;-42
2020/12/27 01:01:37;;;;;;;14.68;9.98;;;;;;;-4.99;91.29;95951.22;1045418;28;20155;-42
2020/12/27 01:02:07;;;;;;;14.17;10.60;;;;;;;-4.98;91.25;95949.47;1045429;28;20159;-43
2020/12/27 01:02:38;;;;;;;17.57;10.50;;;;;;;-4.98;91.52;95942.56;1045357;28;20043;-42
2020/12/27 01:03:08;;;;;;;17.43;11.37;;;;;;;-4.98;90.77;95947.72;1045337;28;20075;-42
2020/12/27 01:03:44;;;;;;;14.37;10.27;;;;;;;-4.98;90.60;95946.91;1044942;28;20029;-43
2020/12/27 01:04:15;;;;;;;15.95;10.02;;;;;;;-4.97;91.05;95943.41;1045359;28;20024;-42
2020/12/27 01:04:45;;;;;;;14.33;9.83;;;;;;;-4.99;91.56;95946.09;1044919;28;20135;-42
2020/12/27 01:05:16;;;;;;;13.93;8.93;;;;;;;-4.97;90.99;95940.84;1045114;28;20488;-42
2020/12/27 01:05:46;;;;;;;13.90;10.57;;;;;;;-4.98;91.13;95939.19;1045637;28;20048;-42
2020/12/27 01:06:24;;;;;;;13.03;9.83;;;;;;;-5.02;91.54;95941.97;1045203;28;20024;-42
2020/12/27 01:06:56;;;;;;;14.65;10.18;;;;;;;-5.02;91.12;95936.84;1045464;28;20385;-43
2020/12/27 01:07:27;;;;;;;13.77;9.60;;;;;;;-5.05;91.49;95942.19;1045319;28;20405;-43
2020/12/27 01:07:57;;;;;;;14.67;9.80;;;;;;;-5.04;90.90;95932.72;1045675;28;20128;-42
2020/12/27 01:08:28;;;;;;;14.40;9.83;;;;;;;-5.06;91.11;95937.16;1045487;28;20021;-42
2020/12/27 01:08:58;;;;;;;15.53;9.10;;;;;;;-5.09;91.02;95939.94;1045744;28;20021;-43
2020/12/27 01:09:29;;;;;;;15.43;9.87;;;;;;;-5.05;91.49;95936.25;1045371;28;20028;-43
2020/12/27 01:09:59;;;;;;;12.53;9.27;;;;;;;-5.03;91.18;95935.19;1045495;28;20422;-43
2020/12/27 01:10:30;;;;;;;12.20;9.30;;;;;;;-5.03;90.86;95930.06;1045618;28;20064;-43
2020/12/27 01:11:04;;;;;;;14.57;10.30;;;;;;;-5.02;91.27;95936.84;1045299;28;20060;-43
2020/12/27 01:11:35;;;;;;;13.45;9.88;;;;;;;-5.04;91.18;95933.56;1045225;28;20487;-43
2020/12/27 01:12:05;;;;;;;14.43;9.53;;;;;;;-5.02;91.92;95931.72;1040914;28;20022;-43
2020/12/27 01:12:36;;;;;;;13.00;9.27;;;;;;;-5.00;91.09;95929.03;1041312;28;20021;-42
2020/12/27 01:13:06;;;;;;;16.17;10.23;;;;;;;-4.97;91.03;95925.44;1040232;28;20052;-42
2020/12/27 01:13:38;;;;;;;11.20;8.30;;;;;;;-4.97;90.48;95920.31;1044193;28;20178;-42
2020/12/27 01:14:08;;;;;;;13.30;8.50;;;;;;;-4.95;89.55;95921.03;1045093;28;20096;-42
2020/12/27 01:14:39;;;;;;;15.40;8.87;;;;;;;-4.97;89.48;95923.69;1040703;28;20108;-43
2020/12/27 01:15:11;;;;;;;12.47;9.27;;;;;;;-5.00;89.92;95921.34;1040991;28;20013;-42
2020/12/27 01:15:42;;;;;;;12.38;8.85;;;;;;;-5.05;90.21;95916.50;1041224;28;20393;-43
2020/12/27 01:16:13;;;;;;;13.53;9.33;;;;;;;-5.04;90.22;95915.59;1041450;28;20026;-43
2020/12/27 01:16:47;;;;;;;12.37;8.33;;;;;;;-5.02;89.81;95921.44;1045120;28;20021;-42
2020/12/27 01:17:18;;;;;;;13.48;9.50;;;;;;;-5.01;90.20;95917.94;1044857;28;20270;-42
2020/12/27 01:17:48;;;;;;;11.43;8.63;;;;;;;-5.02;89.89;95918.06;1045437;28;20021;-43
2020/12/27 01:18:19;;;;;;;15.50;9.37;;;;;;;-5.05;89.11;95919.06;1045723;28;20426;-42
2020/12/27 01:18:50;;;;;;;13.20;9.60;;;;;;;-5.06;89.22;95917.44;1045178;28;20024;-42
2020/12/27 01:19:20;;;;;;;12.50;9.23;;;;;;;-5.03;89.54;95914.66;1040700;28;20155;-43
2020/12/27 01:19:51;;;;;;;13.87;9.10;;;;;;;-5.05;89.21;95921.66;1036865;28;20024;-43
2020/12/27 01:20:21;;;;;;;12.90;8.53;;;;;;;-5.11;88.87;95909.22;1037115;28;20387;-43
2020/12/27 01:20:52;;;;;;;10.83;8.40;;;;;;;-5.08;89.66;95914.16;1041201;28;20136;-41
2020/12/27 01:21:25;;;;;;;9.87;7.80;;;;;;;-5.06;88.82;95919.19;1045272;28;20086;-42
2020/12/27 01:21:56;;;;;;;12.05;8.60;;;;;;;-5.07;88.95;95907.25;1045556;28;20055;-42
2020/12/27 01:22:26;;;;;;;12.00;8.33;;;;;;;-5.04;88.80;95907.91;1045062;28;20461;-42
2020/12/27 01:22:57;;;;;;;12.20;8.27;;;;;;;-5.05;88.68;95906.25;1036363;28;20030;-44
2020/12/27 01:23:27;;;;;;;12.37;9.00;;;;;;;-5.03;88.68;95903.56;1036643;28;20463;-43
2020/12/27 01:23:58;;;;;;;14.60;8.73;;;;;;;-5.04;88.94;95907.91;1036566;28;20099;-42
2020/12/27 01:24:29;;;;;;;13.47;8.97;;;;;;;-5.06;88.63;95904.59;1037108;28;20034;-42
2020/12/27 01:25:00;;;;;;;13.30;9.20;;;;;;;-5.07;88.65;95902.97;1045591;28;20330;-42
2020/12/27 01:25:30;;;;;;;11.48;8.45;;;;;;;-5.06;88.82;95896.88;1044808;28;20378;-43
2020/12/27 01:26:01;;;;;;;13.73;8.60;;;;;;;-5.07;87.92;95895.25;1045239;28;20013;-44
2020/12/27 01:26:32;;;;;;;11.37;8.43;;;;;;;-5.08;88.03;95897.94;1045139;28;20041;-42
2020/12/27 01:27:03;;;;;;;12.13;8.40;;;;;;;-5.07;88.49;95897.84;1045127;28;20092;-42
2020/12/27 01:27:33;;;;;;;10.83;8.00;;;;;;;-5.07;88.34;95900.41;1045156;28;20025;-42
2020/12/27 01:28:04;;;;;;;12.77;8.90;;;;;;;-5.07;88.20;95894.44;1045155;28;20040;-43
2020/12/27 01:28:34;;;;;;;11.77;7.90;;;;;;;-5.09;88.14;95894.53;1045468;28;20107;-43
2020/12/27 01:29:05;;;;;;;12.77;8.27;;;;;;;-5.13;87.89;95895.69;1045440;28;20021;-42
2020/12/27 01:29:35;;;;;;;12.67;8.43;;;;;;;-5.14;88.02;95896.59;1045523;28;20013;-42
2020/12/27 01:30:06;;;;;;;11.50;8.70;;;;;;;-5.14;88.14;95896.59;1045002;28;20017;-43
2020/12/27 01:30:36;;;;;;;14.17;8.53;;;;;;;-5.14;87.93;95894.03;1045173;28;20115;-42
2020/12/27 01:31:07;;;;;;;11.27;8.43;;;;;;;-5.17;87.52;95889.91;1045443;28;20106;-42
2020/12/27 01:31:38;;;;;;;11.10;7.80;;;;;;;-5.14;88.32;95891.47;1044898;28;20028;-43
2020/12/27 01:32:09;;;;;;;11.98;7.72;;;;;;;-5.12;87.46;95894.75;1044898;28;20477;-43
2020/12/27 01:32:41;;;;;;;12.43;8.70;;;;;;;-5.10;87.36;95892.06;1045155;28;20013;-43
2020/12/27 01:33:11;;;;;;;11.13;7.65;;;;;;;-5.10;87.46;95892.06;1044802;28;20444;-43
2020/12/27 01:33:42;;;;;;;11.37;8.00;;;;;;;-5.12;87.28;95889.59;1045233;28;20028;-42
2020/12/27 01:34:12;;;;;;;11.60;7.93;;;;;;;-5.12;87.07;95892.16;1045172;28;20071;-43
2020/12/27 01:34:43;;;;;;;9.73;7.73;;;;;;;-5.15;87.34;95900.09;1045278;28;20111;-42
2020/12/27 01:35:14;;;;;;;13.97;8.77;;;;;;;-5.15;87.44;95900.09;1045322;28;20025;-43
2020/12/27 01:35:45;;;;;;;9.97;7.97;;;;;;;-5.14;87.56;95891.47;1045315;28;20040;-42
2020/12/27 01:36:25;;;;;;;12.05;8.65;;;;;;;-5.17;87.34;95889.91;1044961;28;20255;-43
2020/12/27 01:36:55;;;;;;;;;;;;;;;-5.14;86.62;95893.22;1045598;28;20040;-42
2020/12/27 01:37:26;;;;;;;14.23;8.67;;;;;;;-5.14;87.18;95894.03;1044886;28;20260;-41
2020/12/27 01:37:57;;;;;;;10.67;7.83;;;;;;;-5.16;86.94;95893.31;1042021;28;20037;-43
2020/12/27 01:38:27;;;;;;;10.27;7.80;;;;;;;-5.16;87.21;95888.19;1045027;28;20009;-43
2020/12/27 01:38:58;;;;;;;11.17;7.77;;;;;;;-5.20;87.29;95890.13;1045029;28;20020;-42
2020/12/27 01:39:29;;;;;;;12.48;8.55;;;;;;;-5.17;87.63;95886.53;1045104;28;20017;-42
2020/12/27 01:39:59;;;;;;;10.97;8.33;;;;;;;-5.21;87.96;95885.09;1045249;28;20009;-42
2020/12/27 01:40:30;;;;;;;11.00;8.17;;;;;;;-5.21;87.22;95885.09;1045229;28;20428;-42
2020/12/27 01:41:01;;;;;;;11.93;8.80;;;;;;;-5.22;87.41;95888.59;1045396;28;20052;-42
2020/12/27 01:41:32;;;;;;;13.63;8.43;;;;;;;-5.27;87.26;95878.66;1045302;28;20507;-42
2020/12/27 01:42:02;;;;;;;13.30;8.47;;;;;;;-5.24;87.34;95887.88;1045196;28;20093;-42
2020/12/27 01:42:33;;;;;;;11.73;8.40;;;;;;;-5.22;87.41;95883.47;1044867;28;20116;-42
2020/12/27 01:43:10;;;;;;;12.13;8.40;;;;;;;-5.28;87.59;95879.56;1044806;28;20452;-43
2020/12/27 01:43:40;;;;;;;10.35;8.00;;;;;;;-5.26;87.83;95887.16;1044708;28;20040;-42
2020/12/27 01:44:12;;;;;;;13.20;8.30;;;;;;;-5.26;88.19;95876.91;1045200;28;20025;-43
2020/12/27 01:44:42;;;;;;;10.88;8.40;;;;;;;-5.22;87.52;95878.34;1044867;28;20047;-43
2020/12/27 01:45:13;;;;;;;10.23;7.60;;;;;;;-5.22;87.83;95873.22;1045122;28;20023;-43
2020/12/27 01:45:43;;;;;;;11.03;8.63;;;;;;;-5.25;87.55;95881.13;1040875;28;20060;-42
2020/12/27 01:46:14;;;;;;;11.13;8.80;;;;;;;-5.23;87.47;95876.69;1041252;28;20014;-42
2020/12/27 01:46:46;;;;;;;13.30;8.70;;;;;;;-5.23;87.70;95872.38;1045160;28;20024;-42
2020/12/27 01:47:20;;;;;;;11.10;8.32;;;;;;;-5.21;87.73;95877.41;1045154;28;20198;-43
2020/12/27 01:47:51;;;;;;;11.98;8.75;;;;;;;-5.22;87.34;95876.59;1045140;28;20469;-42
2020/12/27 01:48:22;;;;;;;10.30;7.90;;;;;;;-5.19;87.40;95873.00;1045279;28;20017;-42
2020/12/27 01:48:52;;;;;;;10.77;8.05;;;;;;;-5.20;87.27;95866.22;1045524;28;20063;-42
2020/12/27 01:49:23;;;;;;;10.70;8.47;;;;;;;-5.19;87.75;95870.44;1040938;28;20501;-42
2020/12/27 01:49:53;;;;;;;10.73;8.20;;;;;;;-5.18;87.25;95866.91;1036683;28;20056;-42
2020/12/27 01:50:25;;;;;;;11.07;8.27;;;;;;;-5.23;87.82;95866.41;1036714;28;20014;-43
2020/12/27 01:50:55;;;;;;;10.52;8.23;;;;;;;-5.26;87.36;95867.44;1037156;28;20029;-41
2020/12/27 01:51:26;;;;;;;10.77;8.50;;;;;;;-5.26;87.98;95862.31;1033328;28;20022;-43
2020/12/27 01:51:56;;;;;;;11.03;8.27;;;;;;;-5.26;87.66;95856.38;1040872;28;20041;-42
2020/12/27 01:52:27;;;;;;;11.70;8.50;;;;;;;-5.22;87.25;95865.50;1036984;28;20106;-42
2020/12/27 01:52:58;;;;;;;11.23;8.27;;;;;;;-5.22;87.74;95857.81;1036738;28;20032;-42
2020/12/27 01:53:29;;;;;;;11.82;7.90;;;;;;;-5.20;87.51;95853.38;1036686;28;20033;-42
2020/12/27 01:54:00;;;;;;;11.27;8.30;;;;;;;-5.27;87.53;95855.56;1037369;28;20103;-43
2020/12/27 01:54:30;;;;;;;10.90;8.07;;;;;;;-5.28;88.14;95853.06;1045059;28;20017;-42
2020/12/27 01:55:01;;;;;;;11.83;8.67;;;;;;;-5.27;88.35;95847.84;1045091;28;20496;-42
2020/12/27 01:55:31;;;;;;;13.33;9.23;;;;;;;-5.23;88.47;95845.88;1045429;28;20048;-42
2020/12/27 01:56:02;;;;;;;12.90;9.03;;;;;;;-5.25;88.31;95848.56;1045329;28;20024;-44
2020/12/27 01:56:42;;;;;;;11.83;8.83;;;;;;;-5.26;87.87;95846.91;1044936;28;20019;-42
2020/12/27 01:57:15;;;;;;;10.65;8.43;;;;;;;-5.23;88.16;95835.63;1045169;28;20021;-42
2020/12/27 01:58:26;;;;;;;13.25;8.70;;;;;;;-5.21;88.19;95838.91;1044883;28;20027;-42
2020/12/27 01:59:04;;;;;;;10.70;7.70;;;;;;;-5.19;87.78;95847.34;1044598;28;20041;-43
2020/12/27 01:59:34;;;;;;;10.57;8.30;;;;;;;-5.21;87.48;95838.91;1044918;28;20146;-42
2020/12/27 02:00:05;;;;;;;10.60;8.30;;;;;;;-5.21;87.40;95842.31;1044832;28;20082;-42
2020/12/27 02:00:35;;;;;;;10.63;8.20;;;;;;;-5.22;87.64;95839.84;1045163;28;20024;-42
2020/12/27 02:01:06;;;;;;;11.63;8.30;;;;;;;-5.23;87.89;95841.56;1045140;28;20013;-43
2020/12/27 02:01:37;;;;;;;14.33;8.20;;;;;;;-5.23;87.41;95831.31;1045384;28;20025;-42
2020/12/27 02:02:07;;;;;;;10.80;7.93;;;;;;;-5.23;87.75;95833.88;1045422;28;20009;-42
2020/12/27 02:02:38;;;;;;;12.37;8.03;;;;;;;-5.23;87.98;95838.19;1044937;28;20139;-41
2020/12/27 02:03:09;;;;;;;13.87;8.97;;;;;;;-5.23;87.76;95830.50;1045103;28;20041;-42
2020/12/27 02:03:40;;;;;;;12.13;8.23;;;;;;;-5.26;88.04;95828.94;1040858;28;20049;-42
2020/12/27 02:04:11;;;;;;;10.25;7.97;;;;;;;-5.26;87.63;95831.50;1041098;28;20017;-42
2020/12/27 02:04:42;;;;;;;11.93;8.50;;;;;;;-5.28;88.29;95833.38;1040955;28;20405;-42
2020/12/27 02:05:12;;;;;;;11.47;8.00;;;;;;;-5.31;88.15;95822.47;1041297;28;20024;-42
2020/12/27 02:05:43;;;;;;;10.80;8.50;;;;;;;-5.32;87.80;95821.66;1044863;28;20032;-42
2020/12/27 02:06:14;;;;;;;9.13;8.10;;;;;;;-5.33;87.81;95822.59;1044789;28;20021;-42
2020/12/27 02:06:44;;;;;;;10.53;8.20;;;;;;;-5.32;87.93;95826.78;1045140;28;20379;-41
2020/12/27 02:07:15;;;;;;;14.50;8.50;;;;;;;-5.40;88.36;95822.19;1040820;28;20010;-42
2020/12/27 02:07:45;;;;;;;12.10;7.80;;;;;;;-5.38;88.04;95825.47;1040943;28;20013;-43
2020/12/27 02:08:18;;;;;;;12.90;8.40;;;;;;;-5.35;87.97;95820.13;1036807;28;20173;-43
2020/12/27 02:08:50;;;;;;;12.07;8.48;;;;;;;-5.35;87.82;95817.56;1033265;28;20079;-42
2020/12/27 02:09:20;;;;;;;10.07;8.10;;;;;;;-5.39;88.29;95818.72;1036583;28;20014;-42
2020/12/27 02:09:50;;;;;;;10.37;8.13;;;;;;;-5.42;87.93;95818.06;1037798;28;20013;-41
2020/12/27 02:10:21;;;;;;;10.83;8.67;;;;;;;-5.42;88.22;95818.91;1044755;28;20095;-42
2020/12/27 02:10:51;;;;;;;10.43;8.07;;;;;;;-5.40;88.34;95818.81;1045249;28;20123;-42
2020/12/27 02:11:22;;;;;;;14.00;8.43;;;;;;;-5.39;88.64;95817.88;1045127;28;20315;-41
2020/12/27 02:12:23;;;;;;;12.27;8.37;;;;;;;-5.40;88.69;95819.63;1044984;28;20048;-42
2020/12/27 02:12:54;;;;;;;12.32;8.38;;;;;;;-5.39;88.54;95815.31;1040322;28;20474;-41
2020/12/27 02:13:24;;;;;;;11.23;8.50;;;;;;;-5.40;88.63;95811.13;1040572;28;20092;-41
2020/12/27 02:13:58;;;;;;;14.53;8.43;;;;;;;-5.39;88.20;95818.72;1040640;28;20059;-43
2020/12/27 02:14:28;;;;;;;11.02;7.80;;;;;;;-5.38;88.46;95811.81;1040893;28;20041;-43
2020/12/27 02:14:59;;;;;;;10.67;8.30;;;;;;;-5.38;89.24;95810.06;1044536;28;20037;-42
2020/12/27 02:15:29;;;;;;;13.13;8.40;;;;;;;-5.39;88.75;95813.56;1040619;28;20169;-42
2020/12/27 02:16:00;;;;;;;11.20;8.27;;;;;;;-5.43;89.02;95811.31;1041266;28;20509;-42
2020/12/27 02:16:31;;;;;;;11.20;8.67;;;;;;;-5.43;89.04;95804.44;1040995;28;20077;-43
2020/12/27 02:17:06;;;;;;;12.20;8.57;;;;;;;-5.43;89.05;95808.75;1041349;28;20064;-42
2020/12/27 02:17:37;;;;;;;13.02;8.38;;;;;;;-5.45;88.56;95810.59;1045147;28;20079;-42
2020/12/27 02:18:07;;;;;;;13.40;8.87;;;;;;;-5.47;88.95;95812.44;1045044;28;20110;-42
2020/12/27 02:18:38;;;;;;;10.20;8.00;;;;;;;-5.45;89.47;95805.47;1045322;28;20013;-42
2020/12/27 02:19:12;;;;;;;12.37;8.50;;;;;;;-5.45;89.46;95803.72;1045212;28;20047;-42
2020/12/27 02:19:43;;;;;;;11.43;8.20;;;;;;;-5.45;89.40;95803.72;1045413;28;20441;-43
2020/12/27 02:20:13;;;;;;;11.57;8.30;;;;;;;-5.46;88.80;95802.09;1045258;28;20150;-42
2020/12/27 02:20:44;;;;;;;12.13;8.23;;;;;;;-5.48;89.20;95809.06;1045324;28;20024;-42
2020/12/27 02:21:14;;;;;;;12.13;9.00;;;;;;;-5.49;89.19;95797.16;1045284;28;20017;-42
2020/12/27 02:21:45;;;;;;;13.57;8.13;;;;;;;-5.48;89.02;95795.41;1040842;28;20014;-42
2020/12/27 02:22:15;;;;;;;11.03;8.37;;;;;;;-5.51;89.36;95793.88;1041119;28;20013;-42
2020/12/27 02:22:46;;;;;;;11.90;8.20;;;;;;;-5.52;89.11;95797.38;1036844;28;20076;-42
2020/12/27 02:23:17;;;;;;;13.00;8.60;;;;;;;-5.51;89.32;95790.47;1036977;28;20081;-42
2020/12/27 02:23:47;;;;;;;12.73;9.10;;;;;;;-5.48;89.66;95791.13;1040968;28;20018;-42
2020/12/27 02:24:18;;;;;;;10.27;7.57;;;;;;;-5.49;89.13;95789.47;1041358;28;20033;-42
2020/12/27 02:24:49;;;;;;;13.00;8.33;;;;;;;-5.56;89.90;95798.50;1044754;28;20096;-42